SBTE Airport Information

Runway Information
Runway 2 Length 7218 ft width 148 ft
Elevation 0 ft Threshold 0 ft Heading 0
Runway 20 Length 7218 ft Width 148 ft
Elevation 0 ft Threshold 0 ft Heading 0
Airport Frequencies
Type APP Name TERESINA A Frequency 119.6 MHZ
Type ATIS Name TERESINA A Frequency 127.8 MHZ
Type TWR Name TWR Frequency 118.8 MHZ
Airport Navaids
Type VOR-DME Name Teresina Frequency 112300 KHZ
Type NDB Name Teresina Frequency 215 KHZ
Airport Weather Information & NOTAM
ADDS - METARS form results

(2238 UTC 20 June 2018)
 
METAR text: SBTE 202200Z 00000KT CAVOK 28/20 Q1014
Conditions at: SBTE (TERESINA AIRPORT, BR) observed 2200 UTC 20 June 2018
Temperature: 28.0°C (82°F)
Dewpoint: 20.0°C (68°F) [RH = 62%]
Pressure (altimeter): 29.94 inches Hg (1014.0 mb)
Winds: calm
Visibility: 6 or more miles (10+ km)
Ceiling: ceiling and visibility are OK
Clouds: unknown
Weather: no significant weather observed at this time